Archival Weather

Fukuoka

Fukuoka, Japan (RJFF)

Report from: Tuesday, August 16, 2022 2:00 PM JST
Current time: Sunday, November 27, 2022 6:18 PM JST

Current weather
Weather history
Weather forecast

Present weatherHeavy thunderstorm with rain, mist
Temperature28.0°C (82.4°F)
Heat index34.4°C (93.9°F)
Dew point27.0°C (80.6°F)
Winds 5 kts (2.6 m/s, 5.8 mph) Vrb
Winds variableWinds variable from East-Southeast (110°) to West-Southwest (240°)
Visibility0.6 mi. (1 km)
Clouds Few clouds 800 ft. (244 m)
Scattered clouds with cumulonimbus 2,000 ft. (610 m)
Ceiling: Broken clouds 3,000 ft. (914 m)
Altimeter29.74 in.Hg (1007 mB)
Relative humidity94 %
Density altitude2,180 ft. (665 m)
Remarks No significant changes expected in the next two hours
Flight conditions Low Instrument Meteorological Conditions
Raw dataRJFF 160500Z 18005KT 110V240 1000 R16/1200VP2000D +TSRA BR FEW008 SCT020CB BKN030 28/27 Q1007 NOSIG
An error has occurred. This application may no longer respond until reloaded. Reload 🗙